createdAt,value
2022-09-25T00:02:05.605Z,12.82
2022-09-25T00:04:35.308Z,12.80
2022-09-25T00:07:03.284Z,12.72
2022-09-25T00:09:31.256Z,12.83
2022-09-25T00:11:59.240Z,12.92
2022-09-25T00:14:27.197Z,13.13
2022-09-25T00:16:55.190Z,12.48
2022-09-25T00:19:42.701Z,12.28
2022-09-25T00:22:12.016Z,12.45
2022-09-25T00:24:39.991Z,12.44
2022-09-25T00:27:08.430Z,12.72
2022-09-25T00:29:37.173Z,12.53
2022-09-25T00:32:05.208Z,12.59
2022-09-25T00:34:33.211Z,12.48
2022-09-25T00:37:01.241Z,12.75
2022-09-25T00:39:30.740Z,12.34
2022-09-25T00:41:59.267Z,12.39
2022-09-25T00:44:46.040Z,12.33
2022-09-25T00:47:16.800Z,12.38
2022-09-25T00:49:45.464Z,12.48
2022-09-25T00:52:13.946Z,12.59
2022-09-25T00:54:45.676Z,12.36
2022-09-25T00:57:17.923Z,12.69
2022-09-25T00:59:47.756Z,12.47
2022-09-25T01:02:20.704Z,12.74
2022-09-25T01:04:49.093Z,12.41
2022-09-25T01:07:17.614Z,12.47
2022-09-25T01:09:47.263Z,12.57
2022-09-25T01:12:15.322Z,12.95
2022-09-25T01:14:43.902Z,12.35
2022-09-25T01:17:18.816Z,12.42
2022-09-25T01:19:56.755Z,12.62
2022-09-25T01:22:28.854Z,12.86
2022-09-25T01:25:07.681Z,13.16
2022-09-25T01:27:43.711Z,12.99
2022-09-25T01:30:14.764Z,13.10
2022-09-25T01:32:49.279Z,12.42
2022-09-25T01:35:20.598Z,12.82
2022-09-25T01:37:55.121Z,12.71
2022-09-25T01:40:27.557Z,12.85
2022-09-25T01:42:58.659Z,12.69
2022-09-25T01:45:30.619Z,12.36
2022-09-25T01:48:00.829Z,12.80
2022-09-25T01:50:30.967Z,12.85
2022-09-25T01:53:02.255Z,12.61
2022-09-25T01:55:32.271Z,12.82
2022-09-25T01:58:05.237Z,13.01
2022-09-25T02:00:38.816Z,12.78
2022-09-25T02:03:09.219Z,12.82
2022-09-25T02:05:42.183Z,12.67
2022-09-25T02:08:12.058Z,12.64
2022-09-25T02:10:44.999Z,12.46
2022-09-25T02:13:17.139Z,12.42
2022-09-25T02:15:48.458Z,12.66
2022-09-25T02:18:35.334Z,12.70
2022-09-25T02:21:06.848Z,12.30
2022-09-25T02:23:39.758Z,12.60
2022-09-25T02:26:09.300Z,12.72
2022-09-25T02:28:39.922Z,12.52
2022-09-25T02:31:11.245Z,12.19
2022-09-25T02:33:39.354Z,12.56
2022-09-25T02:36:07.460Z,12.56
2022-09-25T02:38:36.430Z,12.53
2022-09-25T02:41:10.251Z,12.59
2022-09-25T02:43:44.187Z,12.44
2022-09-25T02:46:18.431Z,12.34
2022-09-25T02:48:51.038Z,12.32
2022-09-25T02:51:22.178Z,12.44
2022-09-25T02:53:54.786Z,12.38
2022-09-25T02:56:27.428Z,12.26
2022-09-25T02:58:57.465Z,12.42
2022-09-25T03:01:29.814Z,12.37
2022-09-25T03:04:00.055Z,12.78
2022-09-25T03:06:29.327Z,12.79
2022-09-25T03:08:57.647Z,12.38
2022-09-25T03:11:27.816Z,12.48
2022-09-25T03:13:57.231Z,12.61
2022-09-25T03:16:32.014Z,12.52
2022-09-25T03:19:00.069Z,12.54
2022-09-25T03:21:28.055Z,12.34
2022-09-25T03:23:58.617Z,12.33
2022-09-25T03:26:27.208Z,12.21
2022-09-25T03:28:55.828Z,12.17
2022-09-25T03:31:23.870Z,12.31
2022-09-25T03:33:53.211Z,12.38
2022-09-25T03:36:22.149Z,12.45
2022-09-25T03:38:51.103Z,12.02
2022-09-25T03:41:21.183Z,12.33
2022-09-25T03:43:51.476Z,12.29
2022-09-25T03:46:20.662Z,12.36
2022-09-25T03:48:48.692Z,12.36
2022-09-25T03:51:20.589Z,12.22
2022-09-25T03:53:48.700Z,12.18
2022-09-25T03:56:20.305Z,12.18
2022-09-25T03:58:48.611Z,12.13
2022-09-25T04:01:19.407Z,12.15
2022-09-25T04:03:48.028Z,12.21
2022-09-25T04:06:18.197Z,12.42
2022-09-25T04:08:48.656Z,12.32
2022-09-25T04:11:16.857Z,12.19
2022-09-25T04:13:45.168Z,12.11
2022-09-25T04:16:13.961Z,12.09
2022-09-25T04:18:42.956Z,12.21
2022-09-25T04:21:12.659Z,12.31
2022-09-25T04:23:41.415Z,12.27
2022-09-25T04:26:10.750Z,12.41
2022-09-25T04:28:38.922Z,12.70
2022-09-25T04:31:07.181Z,12.53
2022-09-25T04:33:46.220Z,12.56
2022-09-25T04:36:14.469Z,12.56
2022-09-25T04:38:42.623Z,12.72
2022-09-25T04:41:12.407Z,12.21
2022-09-25T04:43:40.882Z,12.27
2022-09-25T04:46:16.758Z,12.17
2022-09-25T04:48:50.815Z,12.16
2022-09-25T04:51:18.806Z,12.14
2022-09-25T04:53:47.209Z,12.23
2022-09-25T04:56:16.971Z,12.26
2022-09-25T04:58:46.112Z,12.41
2022-09-25T05:01:14.256Z,12.41
2022-09-25T05:03:42.799Z,12.16
2022-09-25T05:06:10.834Z,12.14
2022-09-25T05:08:38.785Z,12.25
2022-09-25T05:11:09.091Z,12.25
2022-09-25T05:13:41.048Z,12.04
2022-09-25T05:16:09.113Z,12.08
2022-09-25T05:18:37.112Z,12.22
2022-09-25T05:21:07.615Z,12.07
2022-09-25T05:23:35.579Z,12.01
2022-09-25T05:26:03.660Z,12.05
2022-09-25T05:28:32.125Z,11.98
2022-09-25T05:31:02.710Z,12.21
2022-09-25T05:33:30.811Z,12.14
2022-09-25T05:36:01.162Z,12.12
2022-09-25T05:38:29.714Z,11.95
2022-09-25T05:41:02.941Z,12.34
2022-09-25T05:43:31.355Z,12.21
2022-09-25T05:46:00.841Z,12.33
2022-09-25T05:48:28.841Z,12.19
2022-09-25T05:50:57.497Z,12.58
2022-09-25T05:53:26.716Z,12.60
2022-09-25T05:55:55.464Z,12.45
2022-09-25T05:58:23.510Z,12.53
2022-09-25T06:00:51.947Z,12.33
2022-09-25T06:03:21.389Z,12.45
2022-09-25T06:05:51.908Z,12.54
2022-09-25T06:08:19.899Z,12.68
2022-09-25T06:10:53.745Z,12.80
2022-09-25T06:13:21.843Z,12.45
2022-09-25T06:15:52.707Z,12.44
2022-09-25T06:18:22.980Z,12.48
2022-09-25T06:20:51.461Z,12.44
2022-09-25T06:23:21.630Z,12.64
2022-09-25T06:25:49.604Z,12.67
2022-09-25T06:28:19.979Z,12.87
2022-09-25T06:30:48.085Z,12.69
2022-09-25T06:33:16.089Z,12.68
2022-09-25T06:35:46.023Z,12.48
2022-09-25T06:38:14.269Z,12.69
2022-09-25T06:40:42.454Z,12.82
2022-09-25T06:43:11.417Z,12.82
2022-09-25T06:45:39.469Z,13.05
2022-09-25T06:48:10.587Z,12.84
2022-09-25T06:50:40.528Z,12.97
2022-09-25T06:53:10.380Z,12.79
2022-09-25T06:55:38.968Z,12.97
2022-09-25T06:58:08.322Z,12.86
2022-09-25T07:00:36.509Z,13.15
2022-09-25T07:03:22.324Z,13.31
2022-09-25T07:05:50.436Z,13.22
2022-09-25T07:08:20.949Z,13.17
2022-09-25T07:10:50.142Z,13.21
2022-09-25T07:13:18.179Z,13.38
2022-09-25T07:15:51.853Z,13.63
2022-09-25T07:18:19.947Z,13.34
2022-09-25T07:20:47.985Z,13.24
2022-09-25T07:23:17.187Z,13.49
2022-09-25T07:25:48.998Z,13.37
2022-09-25T07:28:18.929Z,13.46
2022-09-25T07:30:47.341Z,13.55
2022-09-25T07:33:16.206Z,13.53
2022-09-25T07:35:44.253Z,13.33
2022-09-25T07:38:12.302Z,13.24
2022-09-25T07:40:40.340Z,13.33
2022-09-25T07:43:09.680Z,13.30
2022-09-25T07:45:37.799Z,13.16
2022-09-25T07:48:06.226Z,13.23
2022-09-25T07:50:34.331Z,13.14
2022-09-25T07:53:02.337Z,13.25
2022-09-25T07:55:30.341Z,13.25
2022-09-25T07:57:58.813Z,13.01
2022-09-25T08:00:28.271Z,13.19
2022-09-25T08:02:57.431Z,13.05
2022-09-25T08:05:25.751Z,13.30
2022-09-25T08:07:54.100Z,13.20
2022-09-25T08:10:24.608Z,13.16
2022-09-25T08:12:52.843Z,13.52
2022-09-25T08:15:20.849Z,13.30
2022-09-25T08:17:50.205Z,13.68
2022-09-25T08:20:18.388Z,13.57
2022-09-25T08:22:47.565Z,14.00
2022-09-25T08:25:17.892Z,13.79
2022-09-25T08:27:45.867Z,13.63
2022-09-25T08:30:15.840Z,13.57
2022-09-25T08:32:43.836Z,13.55
2022-09-25T08:35:13.760Z,13.55
2022-09-25T08:37:42.574Z,13.35
2022-09-25T08:40:17.754Z,13.28
2022-09-25T08:42:46.871Z,13.88
2022-09-25T08:45:39.964Z,13.92
2022-09-25T08:48:27.901Z,13.92
2022-09-25T08:50:57.341Z,13.91
2022-09-25T08:53:26.210Z,13.89
2022-09-25T08:56:11.944Z,13.85
2022-09-25T08:58:42.621Z,13.96
2022-09-25T09:01:13.404Z,13.88
2022-09-25T09:03:45.082Z,13.92
2022-09-25T09:06:16.235Z,13.79
2022-09-25T09:08:47.789Z,13.72
2022-09-25T09:11:19.213Z,13.84
2022-09-25T09:13:49.336Z,13.55
2022-09-25T09:16:20.307Z,13.51
2022-09-25T09:18:48.414Z,13.51
2022-09-25T09:21:22.506Z,13.39
2022-09-25T09:23:55.266Z,13.46
2022-09-25T09:26:43.420Z,13.41
2022-09-25T09:29:17.909Z,13.41
2022-09-25T09:31:52.218Z,13.47
2022-09-25T09:35:00.997Z,13.12
2022-09-25T09:37:31.638Z,13.47
2022-09-25T09:40:03.825Z,13.63
2022-09-25T09:42:38.150Z,14.10
2022-09-25T09:45:13.207Z,13.47
2022-09-25T09:47:44.818Z,13.91
2022-09-25T09:50:22.776Z,13.86
2022-09-25T09:52:57.116Z,13.92
2022-09-25T09:55:27.770Z,14.12
2022-09-25T09:57:57.427Z,14.27
2022-09-25T10:00:25.486Z,15.07
2022-09-25T10:02:59.330Z,14.97
2022-09-25T10:05:29.695Z,14.97
2022-09-25T10:07:59.606Z,14.63
2022-09-25T10:10:35.148Z,14.64
2022-09-25T10:13:07.287Z,14.29
2022-09-25T10:15:40.889Z,14.61
2022-09-25T10:18:09.144Z,14.75
2022-09-25T10:20:41.272Z,14.28
2022-09-25T10:23:20.255Z,14.40
2022-09-25T10:25:51.316Z,14.28
2022-09-25T10:28:27.846Z,14.35
2022-09-25T10:30:56.833Z,14.62
2022-09-25T10:33:26.167Z,14.95
2022-09-25T10:35:56.176Z,15.03
2022-09-25T10:38:37.520Z,14.64
2022-09-25T10:41:10.375Z,15.07
2022-09-25T10:43:51.006Z,14.85
2022-09-25T10:46:46.787Z,14.89
2022-09-25T10:49:33.549Z,15.03
2022-09-25T10:52:06.287Z,15.15
2022-09-25T10:54:41.897Z,14.94
2022-09-25T10:57:18.102Z,15.34
2022-09-25T10:59:48.485Z,15.76
2022-09-25T11:02:22.736Z,15.62
2022-09-25T11:04:52.595Z,15.51
2022-09-25T11:07:27.727Z,15.43
2022-09-25T11:10:00.539Z,15.33
2022-09-25T11:12:30.287Z,15.19
2022-09-25T11:15:02.294Z,15.21
2022-09-25T11:17:33.560Z,14.78
2022-09-25T11:20:22.294Z,15.37
2022-09-25T11:22:53.653Z,15.02
2022-09-25T11:25:28.243Z,15.21
2022-09-25T11:27:59.959Z,15.50
2022-09-25T11:30:33.325Z,15.98
2022-09-25T11:33:05.414Z,15.54
2022-09-25T11:35:42.565Z,15.63
2022-09-25T11:38:18.209Z,16.05
2022-09-25T11:41:14.667Z,16.03
2022-09-25T11:43:58.264Z,15.79
2022-09-25T11:46:29.829Z,16.08
2022-09-25T11:49:07.306Z,16.02
2022-09-25T11:51:59.197Z,16.12
2022-09-25T11:54:34.479Z,15.81
2022-09-25T11:57:09.789Z,16.39
2022-09-25T11:59:43.960Z,15.95
2022-09-25T12:02:19.788Z,16.31
2022-09-25T12:04:56.947Z,16.50
2022-09-25T12:07:40.564Z,16.11
2022-09-25T12:10:14.970Z,16.17
2022-09-25T12:12:49.285Z,16.26
2022-09-25T12:15:21.273Z,15.85
2022-09-25T12:17:54.377Z,15.96
2022-09-25T12:20:26.812Z,15.75
2022-09-25T12:23:00.156Z,16.02
2022-09-25T12:25:37.254Z,15.96
2022-09-25T12:28:16.338Z,16.23
2022-09-25T12:30:56.005Z,15.89
2022-09-25T12:33:27.991Z,15.70
2022-09-25T12:35:59.116Z,15.81
2022-09-25T12:38:34.576Z,15.89
2022-09-25T12:41:06.803Z,16.48
2022-09-25T12:43:41.243Z,16.56
2022-09-25T12:46:10.978Z,17.26
2022-09-25T12:48:43.975Z,16.87
2022-09-25T12:51:14.882Z,16.14
2022-09-25T12:53:46.181Z,16.11
2022-09-25T12:56:16.645Z,16.28
2022-09-25T12:58:55.335Z,15.95
2022-09-25T13:01:25.605Z,15.93
2022-09-25T13:04:04.813Z,15.96
2022-09-25T13:06:39.073Z,15.81
2022-09-25T13:09:11.481Z,16.16
2022-09-25T13:11:45.301Z,16.38
2022-09-25T13:14:17.816Z,16.59
2022-09-25T13:16:48.698Z,16.59
2022-09-25T13:19:25.157Z,16.41
2022-09-25T13:22:00.075Z,16.41
2022-09-25T13:24:28.400Z,16.08
2022-09-25T13:26:57.690Z,16.42
2022-09-25T13:29:28.919Z,16.26
2022-09-25T13:32:03.473Z,16.12
2022-09-25T13:34:35.149Z,16.94
2022-09-25T13:37:05.089Z,16.69
2022-09-25T13:39:51.615Z,16.20
2022-09-25T13:42:23.361Z,16.13
2022-09-25T13:44:58.035Z,16.14
2022-09-25T13:47:53.393Z,16.54
2022-09-25T13:50:26.318Z,16.20
2022-09-25T13:53:16.230Z,16.01
2022-09-25T13:55:44.636Z,16.09
2022-09-25T13:58:19.202Z,16.50
2022-09-25T14:00:57.496Z,15.91
2022-09-25T14:03:31.994Z,16.54
2022-09-25T14:06:00.650Z,16.53
2022-09-25T14:08:31.091Z,15.93
2022-09-25T14:11:00.875Z,16.46
2022-09-25T14:13:32.280Z,16.57
2022-09-25T14:16:02.792Z,16.52
2022-09-25T14:18:37.327Z,16.42
2022-09-25T14:21:06.370Z,16.49
2022-09-25T14:23:34.435Z,16.35
2022-09-25T14:26:04.789Z,15.98
2022-09-25T14:28:36.407Z,15.88
2022-09-25T14:31:23.909Z,15.89
2022-09-25T14:34:04.679Z,15.87
2022-09-25T14:36:37.107Z,15.60
2022-09-25T14:39:14.252Z,15.46
2022-09-25T14:41:52.878Z,15.64
2022-09-25T14:44:30.120Z,15.65
2022-09-25T14:46:58.304Z,15.73
2022-09-25T14:49:28.865Z,15.88
2022-09-25T14:51:58.212Z,16.64
2022-09-25T14:54:29.643Z,15.78
2022-09-25T14:56:58.192Z,15.97
2022-09-25T14:59:31.096Z,15.51
2022-09-25T15:02:00.681Z,15.32
2022-09-25T15:04:32.274Z,15.17
2022-09-25T15:07:04.507Z,15.13
2022-09-25T15:09:36.904Z,15.05
2022-09-25T15:12:15.961Z,14.75
2022-09-25T15:14:57.869Z,14.52
2022-09-25T15:17:25.728Z,14.67
2022-09-25T15:19:55.600Z,14.29
2022-09-25T15:22:24.840Z,14.33
2022-09-25T15:24:55.526Z,14.35
2022-09-25T15:27:23.659Z,14.41
2022-09-25T15:29:52.128Z,14.36
2022-09-25T15:32:21.413Z,14.41
2022-09-25T15:34:49.459Z,14.37
2022-09-25T15:37:29.040Z,14.35
2022-09-25T15:39:57.288Z,14.50
2022-09-25T15:42:25.233Z,14.74
2022-09-25T15:44:54.472Z,14.59
2022-09-25T15:47:41.181Z,14.74
2022-09-25T15:50:17.628Z,14.52
2022-09-25T15:52:49.997Z,14.63
2022-09-25T15:55:22.169Z,14.72
2022-09-25T15:57:50.972Z,14.53
2022-09-25T16:00:40.265Z,14.52
2022-09-25T16:03:32.760Z,14.25
2022-09-25T16:06:04.246Z,14.31
2022-09-25T16:08:34.556Z,13.92
2022-09-25T16:11:17.819Z,13.78
2022-09-25T16:13:48.600Z,13.42
2022-09-25T16:16:21.339Z,13.37
2022-09-25T16:18:51.086Z,13.24
2022-09-25T16:21:23.703Z,13.25
2022-09-25T16:23:56.121Z,13.41
2022-09-25T16:26:25.940Z,13.60
2022-09-25T16:29:06.481Z,13.33
2022-09-25T16:31:36.356Z,13.37
2022-09-25T16:34:05.751Z,13.26
2022-09-25T16:36:40.836Z,13.20
2022-09-25T16:39:26.798Z,13.20
2022-09-25T16:41:56.478Z,13.14
2022-09-25T16:44:36.972Z,12.98
2022-09-25T16:47:06.903Z,13.28
2022-09-25T16:49:35.299Z,13.37
2022-09-25T16:52:05.576Z,13.06
2022-09-25T16:54:33.820Z,13.08
2022-09-25T16:57:04.086Z,12.95
2022-09-25T16:59:32.110Z,13.09
2022-09-25T17:02:02.158Z,12.87
2022-09-25T17:04:32.109Z,12.86
2022-09-25T17:07:00.100Z,12.77
2022-09-25T17:09:29.248Z,12.92
2022-09-25T17:12:00.983Z,12.71
2022-09-25T17:14:30.397Z,12.64
2022-09-25T17:16:58.955Z,12.67
2022-09-25T17:19:27.714Z,12.63
2022-09-25T17:21:58.009Z,12.60
2022-09-25T17:24:27.120Z,12.70
2022-09-25T17:26:55.407Z,12.44
2022-09-25T17:29:23.480Z,12.42
2022-09-25T17:31:53.255Z,12.47
2022-09-25T17:34:24.295Z,12.59
2022-09-25T17:36:52.635Z,12.58
2022-09-25T17:39:20.629Z,12.53
2022-09-25T17:41:48.834Z,12.28
2022-09-25T17:44:18.662Z,12.48
2022-09-25T17:46:46.815Z,12.40
2022-09-25T17:49:16.419Z,12.39
2022-09-25T17:51:44.709Z,12.34
2022-09-25T17:54:13.396Z,12.53
2022-09-25T17:56:42.587Z,12.32
2022-09-25T17:59:10.738Z,12.16
2022-09-25T18:01:40.069Z,12.32
2022-09-25T18:04:17.922Z,12.22
2022-09-25T18:06:50.046Z,12.31
2022-09-25T18:09:18.104Z,12.33
2022-09-25T18:11:46.143Z,12.24
2022-09-25T18:14:15.071Z,12.29
2022-09-25T18:16:44.194Z,12.39
2022-09-25T18:19:33.202Z,12.33
2022-09-25T18:22:18.772Z,12.14
2022-09-25T18:24:47.001Z,12.30
2022-09-25T18:27:16.163Z,12.15
2022-09-25T18:29:45.749Z,12.19
2022-09-25T18:32:13.939Z,12.35
2022-09-25T18:34:42.273Z,12.32
2022-09-25T18:37:12.243Z,12.30
2022-09-25T18:39:40.289Z,12.28
2022-09-25T18:42:08.654Z,12.32
2022-09-25T18:44:41.993Z,12.12
2022-09-25T18:47:11.013Z,12.16
2022-09-25T18:49:39.050Z,12.09
2022-09-25T18:52:07.098Z,12.17
2022-09-25T18:54:36.428Z,12.26
2022-09-25T18:57:04.580Z,12.02
2022-09-25T18:59:32.596Z,12.09
2022-09-25T19:02:00.773Z,12.00
2022-09-25T19:04:28.853Z,12.01
2022-09-25T19:06:56.973Z,12.09
2022-09-25T19:09:27.408Z,11.99
2022-09-25T19:11:56.795Z,11.97
2022-09-25T19:14:25.045Z,11.84
2022-09-25T19:16:53.264Z,12.02
2022-09-25T19:19:21.269Z,12.00
2022-09-25T19:21:49.270Z,11.71
2022-09-25T19:24:18.294Z,11.92
2022-09-25T19:26:47.925Z,12.05
2022-09-25T19:29:17.410Z,11.88
2022-09-25T19:31:45.723Z,11.91
2022-09-25T19:34:13.824Z,11.78
2022-09-25T19:36:41.902Z,11.92
2022-09-25T19:39:09.891Z,11.88
2022-09-25T19:41:40.654Z,11.85
2022-09-25T19:44:13.235Z,11.80
2022-09-25T19:46:43.339Z,11.60
2022-09-25T19:49:11.771Z,11.90
2022-09-25T19:51:40.363Z,11.84
2022-09-25T19:54:12.562Z,11.79
2022-09-25T19:56:42.119Z,11.83
2022-09-25T19:59:12.813Z,11.84
2022-09-25T20:01:42.814Z,11.83
2022-09-25T20:04:17.959Z,11.79
2022-09-25T20:06:46.744Z,11.84
2022-09-25T20:09:14.937Z,12.12
2022-09-25T20:11:43.156Z,11.59
2022-09-25T20:14:11.295Z,11.91
2022-09-25T20:16:39.293Z,11.93
2022-09-25T20:19:07.980Z,11.86
2022-09-25T20:21:38.230Z,11.64
2022-09-25T20:24:08.323Z,11.95
2022-09-25T20:26:36.674Z,11.99
2022-09-25T20:29:09.011Z,11.71
2022-09-25T20:31:38.091Z,11.63
2022-09-25T20:34:06.539Z,11.64
2022-09-25T20:36:36.146Z,11.60
2022-09-25T20:39:08.036Z,11.77
2022-09-25T20:41:36.190Z,11.81
2022-09-25T20:44:06.098Z,12.19
2022-09-25T20:46:34.543Z,12.10
2022-09-25T20:49:03.473Z,11.77
2022-09-25T20:51:32.195Z,12.07
2022-09-25T20:54:01.488Z,11.73
2022-09-25T20:56:31.782Z,11.75
2022-09-25T20:59:00.695Z,12.15
2022-09-25T21:01:30.049Z,12.21
2022-09-25T21:03:59.917Z,11.96
2022-09-25T21:06:28.823Z,11.90
2022-09-25T21:09:00.653Z,11.86
2022-09-25T21:11:30.198Z,11.99
2022-09-25T21:14:00.383Z,11.86
2022-09-25T21:16:29.294Z,11.75
2022-09-25T21:18:58.261Z,11.60
2022-09-25T21:21:26.921Z,11.86
2022-09-25T21:23:56.305Z,11.98
2022-09-25T21:26:28.126Z,11.73
2022-09-25T21:28:57.451Z,12.29
2022-09-25T21:31:27.877Z,12.07
2022-09-25T21:33:56.912Z,11.90
2022-09-25T21:36:25.652Z,11.82
2022-09-25T21:38:56.049Z,11.79
2022-09-25T21:41:25.573Z,12.00
2022-09-25T21:43:53.978Z,11.90
2022-09-25T21:46:22.089Z,11.69
2022-09-25T21:48:52.655Z,11.97
2022-09-25T21:51:21.569Z,11.96
2022-09-25T21:53:50.049Z,11.75
2022-09-25T21:56:18.869Z,12.01
2022-09-25T21:58:49.246Z,11.84
2022-09-25T22:02:38.711Z,12.11
2022-09-25T22:05:06.968Z,11.69
2022-09-25T22:07:34.969Z,11.86
2022-09-25T22:10:02.996Z,11.89
2022-09-25T22:12:30.995Z,11.81
2022-09-25T22:14:58.961Z,11.76
2022-09-25T22:17:26.930Z,11.72
2022-09-25T22:19:56.429Z,11.96
2022-09-25T22:22:24.488Z,11.74
2022-09-25T22:24:52.482Z,11.69
2022-09-25T22:27:20.439Z,11.69
2022-09-25T22:29:48.374Z,11.63
2022-09-25T22:32:16.372Z,12.02
2022-09-25T22:34:44.412Z,11.74
2022-09-25T22:37:13.728Z,11.64
2022-09-25T22:39:41.938Z,11.59
2022-09-25T22:42:09.898Z,11.55
2022-09-25T22:44:37.874Z,11.81
2022-09-25T22:47:06.259Z,11.62
2022-09-25T22:49:34.241Z,11.58
2022-09-25T22:52:02.479Z,11.62
2022-09-25T22:54:31.975Z,11.83
2022-09-25T22:56:59.986Z,12.20
2022-09-25T22:59:28.118Z,11.87
2022-09-25T23:01:56.239Z,11.95
2022-09-25T23:04:25.126Z,11.54
2022-09-25T23:06:53.758Z,11.89
2022-09-25T23:09:22.276Z,11.60
2022-09-25T23:11:54.559Z,11.51
2022-09-25T23:14:23.829Z,11.26
2022-09-25T23:16:53.283Z,11.66
2022-09-25T23:19:21.695Z,11.26
2022-09-25T23:21:51.551Z,11.65
2022-09-25T23:24:20.188Z,11.41
2022-09-25T23:26:48.130Z,11.65
2022-09-25T23:29:18.757Z,11.55
2022-09-25T23:31:49.683Z,11.30
2022-09-25T23:34:18.063Z,11.21
2022-09-25T23:36:46.116Z,11.31
2022-09-25T23:39:16.244Z,11.27
2022-09-25T23:41:44.275Z,10.98
2022-09-25T23:44:12.709Z,10.80
2022-09-25T23:46:43.216Z,10.97
2022-09-25T23:49:11.318Z,10.82
2022-09-25T23:51:39.472Z,10.87
2022-09-25T23:54:07.565Z,10.89
2022-09-25T23:56:36.545Z,10.81
2022-09-25T23:59:05.404Z,10.69
